createdAt,value
2019-04-16T00:00:02.060Z,19.53
2019-04-16T00:02:54.879Z,19.60
2019-04-16T00:05:30.101Z,19.00
2019-04-16T00:08:19.477Z,20.00
2019-04-16T00:10:52.184Z,18.80
2019-04-16T00:13:43.396Z,20.23
2019-04-16T00:16:15.153Z,19.13
2019-04-16T00:18:57.323Z,19.60
2019-04-16T00:21:46.183Z,19.42
2019-04-16T00:24:23.663Z,19.50
2019-04-16T00:26:59.131Z,17.37
2019-04-16T00:29:33.053Z,18.23
2019-04-16T00:32:26.203Z,18.97
2019-04-16T00:34:58.116Z,17.87
2019-04-16T00:37:29.887Z,18.13
2019-04-16T00:40:02.090Z,17.80
2019-04-16T00:42:35.271Z,19.25
2019-04-16T00:45:07.357Z,19.47
2019-04-16T00:47:39.156Z,19.33
2019-04-16T00:50:11.046Z,19.37
2019-04-16T00:52:42.942Z,18.57
2019-04-16T00:55:14.801Z,19.42
2019-04-16T00:57:48.619Z,19.43
2019-04-16T01:00:22.299Z,18.40
2019-04-16T01:02:54.193Z,19.87
2019-04-16T01:05:25.724Z,18.77
2019-04-16T01:07:57.262Z,19.80
2019-04-16T01:10:29.237Z,19.63
2019-04-16T01:13:01.062Z,20.03
2019-04-16T01:15:33.112Z,19.35
2019-04-16T01:18:07.818Z,19.42
2019-04-16T01:20:42.821Z,19.03
2019-04-16T01:23:17.592Z,19.52
2019-04-16T01:25:46.359Z,21.57
2019-04-16T01:28:20.765Z,19.10
2019-04-16T01:31:17.446Z,21.10
2019-04-16T01:34:03.266Z,20.13
2019-04-16T01:36:54.263Z,19.23
2019-04-16T01:39:28.027Z,19.63
2019-04-16T01:41:59.752Z,20.50
2019-04-16T01:44:31.564Z,21.57
2019-04-16T01:47:04.161Z,19.27
2019-04-16T01:49:39.386Z,21.73
2019-04-16T01:52:10.576Z,20.03
2019-04-16T01:54:42.761Z,20.97
2019-04-16T01:57:14.403Z,20.67
2019-04-16T01:59:46.247Z,20.05
2019-04-16T02:02:18.884Z,22.05
2019-04-16T02:04:52.118Z,20.47
2019-04-16T02:07:27.722Z,20.32
2019-04-16T02:09:57.326Z,21.53
2019-04-16T02:12:29.699Z,23.63
2019-04-16T02:15:01.568Z,21.23
2019-04-16T02:17:34.383Z,21.80
2019-04-16T02:20:07.581Z,21.68
2019-04-16T02:22:42.228Z,23.60
2019-04-16T02:25:19.028Z,22.13
2019-04-16T02:27:48.716Z,22.00
2019-04-16T02:30:20.366Z,23.10
2019-04-16T02:32:51.988Z,22.57
2019-04-16T02:35:24.917Z,22.13
2019-04-16T02:37:56.681Z,22.93
2019-04-16T02:40:28.572Z,23.43
2019-04-16T02:43:04.781Z,22.37
2019-04-16T02:45:33.825Z,23.17
2019-04-16T02:48:05.836Z,23.03
2019-04-16T02:51:05.472Z,22.97
2019-04-16T02:53:58.895Z,22.47
2019-04-16T02:56:51.614Z,23.90
2019-04-16T02:59:25.587Z,23.70
2019-04-16T03:02:24.345Z,23.20
2019-04-16T03:05:14.986Z,21.90
2019-04-16T03:07:47.113Z,23.30
2019-04-16T03:10:19.670Z,24.12
2019-04-16T03:12:52.937Z,24.93
2019-04-16T03:15:42.842Z,23.43
2019-04-16T03:18:16.225Z,24.23
2019-04-16T03:20:49.500Z,23.33
2019-04-16T03:23:21.141Z,22.87
2019-04-16T03:25:53.866Z,22.53
2019-04-16T03:28:27.183Z,23.17
2019-04-16T03:30:59.090Z,24.77
2019-04-16T03:33:30.697Z,22.87
2019-04-16T03:36:03.903Z,23.30
2019-04-16T03:38:37.356Z,22.10
2019-04-16T03:41:09.098Z,23.50
2019-04-16T03:43:41.014Z,22.87
2019-04-16T03:46:14.514Z,23.67
2019-04-16T03:48:46.190Z,24.43
2019-04-16T03:51:18.444Z,23.20
2019-04-16T03:53:50.492Z,23.93
2019-04-16T03:56:22.093Z,24.33
2019-04-16T03:58:55.097Z,22.50
2019-04-16T04:01:27.345Z,24.00
2019-04-16T04:03:59.256Z,24.50
2019-04-16T04:06:31.218Z,24.37
2019-04-16T04:09:03.265Z,26.17
2019-04-16T04:11:40.940Z,23.77
2019-04-16T04:14:10.907Z,23.37
2019-04-16T04:16:43.007Z,23.77
2019-04-16T04:19:15.972Z,24.18
2019-04-16T04:21:50.679Z,23.67
2019-04-16T04:24:22.113Z,22.70
2019-04-16T04:26:53.995Z,22.70
2019-04-16T04:29:28.964Z,25.00
2019-04-16T04:32:03.371Z,24.83
2019-04-16T04:34:35.071Z,24.17
2019-04-16T04:37:07.209Z,22.57
2019-04-16T04:39:43.682Z,23.73
2019-04-16T04:42:14.275Z,24.23
2019-04-16T04:44:47.141Z,23.40
2019-04-16T04:47:20.143Z,24.30
2019-04-16T04:49:51.858Z,25.10
2019-04-16T04:52:23.642Z,24.13
2019-04-16T04:54:55.476Z,23.23
2019-04-16T04:57:28.391Z,23.53
2019-04-16T05:00:05.649Z,25.07
2019-04-16T05:02:37.677Z,24.95
2019-04-16T05:05:43.765Z,24.27
2019-04-16T05:08:15.488Z,24.43
2019-04-16T05:10:58.319Z,25.13
2019-04-16T05:13:23.927Z,24.57
2019-04-16T05:15:54.250Z,24.87
2019-04-16T05:18:27.194Z,23.87
2019-04-16T05:20:59.115Z,24.47
2019-04-16T05:23:30.801Z,26.07
2019-04-16T05:26:04.815Z,24.90
2019-04-16T05:28:36.452Z,24.03
2019-04-16T05:31:08.321Z,23.80
2019-04-16T05:33:40.241Z,23.90
2019-04-16T05:36:14.175Z,23.32
2019-04-16T05:38:45.551Z,25.10
2019-04-16T05:41:21.282Z,25.37
2019-04-16T05:43:50.961Z,22.57
2019-04-16T05:46:22.617Z,24.45
2019-04-16T05:48:54.671Z,25.27
2019-04-16T05:51:28.521Z,24.17
2019-04-16T05:54:08.430Z,24.60
2019-04-16T05:56:44.454Z,24.23
2019-04-16T05:59:17.151Z,25.05
2019-04-16T06:01:57.382Z,25.20
2019-04-16T06:04:28.697Z,23.20
2019-04-16T06:07:03.701Z,24.33
2019-04-16T06:09:34.256Z,25.20
2019-04-16T06:12:08.929Z,24.10
2019-04-16T06:14:49.676Z,23.07
2019-04-16T06:17:39.695Z,23.10
2019-04-16T06:20:36.662Z,22.00
2019-04-16T06:23:26.078Z,23.33
2019-04-16T06:26:17.629Z,22.73
2019-04-16T06:29:08.323Z,23.17
2019-04-16T06:31:56.475Z,23.37
2019-04-16T06:34:34.346Z,21.77
2019-04-16T06:37:21.598Z,23.13
2019-04-16T06:40:22.269Z,22.47
2019-04-16T06:43:03.803Z,21.77
2019-04-16T06:45:47.776Z,23.73
2019-04-16T06:48:29.055Z,21.37
2019-04-16T06:51:20.218Z,22.80
2019-04-16T06:54:11.259Z,23.27
2019-04-16T06:57:17.435Z,22.43
2019-04-16T07:00:13.911Z,23.03
2019-04-16T07:03:02.132Z,21.70
2019-04-16T07:05:49.282Z,21.40
2019-04-16T07:08:38.185Z,22.77
2019-04-16T07:11:08.196Z,20.27
2019-04-16T07:13:42.288Z,22.77
2019-04-16T07:16:14.843Z,21.33
2019-04-16T07:18:46.516Z,21.67
2019-04-16T07:21:18.371Z,22.23
2019-04-16T07:23:56.850Z,20.73
2019-04-16T07:26:24.826Z,21.07
2019-04-16T07:29:02.744Z,20.47
2019-04-16T07:31:45.244Z,20.37
2019-04-16T07:34:40.066Z,21.03
2019-04-16T07:37:33.828Z,21.03
2019-04-16T07:40:24.127Z,21.00
2019-04-16T07:43:23.552Z,19.93
2019-04-16T07:46:17.288Z,19.37
2019-04-16T07:49:01.352Z,19.13
2019-04-16T07:51:50.765Z,18.00
2019-04-16T07:54:41.650Z,18.10
2019-04-16T07:57:13.397Z,15.93
2019-04-16T07:59:47.589Z,15.13
2019-04-16T08:02:21.518Z,15.25
2019-04-16T08:04:52.680Z,13.80
2019-04-16T08:07:24.262Z,12.27
2019-04-16T08:10:01.074Z,11.00
2019-04-16T08:12:30.998Z,8.50
2019-04-16T08:15:13.377Z,8.90
2019-04-16T08:17:37.645Z,8.67
2019-04-16T08:20:09.645Z,9.03
2019-04-16T08:22:41.289Z,7.80
2019-04-16T08:25:12.899Z,8.55
2019-04-16T08:27:47.145Z,8.47
2019-04-16T08:30:19.174Z,6.05
2019-04-16T08:32:51.967Z,6.70
2019-04-16T08:35:24.053Z,7.93
2019-04-16T08:37:57.946Z,7.10
2019-04-16T08:40:29.261Z,8.90
2019-04-16T08:43:00.953Z,7.70
2019-04-16T08:45:32.630Z,6.53
2019-04-16T08:48:05.038Z,6.20
2019-04-16T08:50:36.794Z,5.00
2019-04-16T08:53:13.288Z,5.23
2019-04-16T08:55:42.494Z,6.27
2019-04-16T08:58:15.128Z,5.73
2019-04-16T09:00:48.852Z,5.33
2019-04-16T09:03:21.561Z,5.28
2019-04-16T09:05:53.175Z,5.70
2019-04-16T09:08:33.456Z,5.93
2019-04-16T09:11:06.110Z,6.40
2019-04-16T09:13:44.449Z,6.97
2019-04-16T09:16:16.648Z,8.25
2019-04-16T09:19:12.997Z,6.07
2019-04-16T09:21:44.789Z,6.63
2019-04-16T09:24:41.422Z,6.28
2019-04-16T09:27:31.073Z,5.77
2019-04-16T09:30:22.197Z,5.80
2019-04-16T09:33:15.585Z,6.30
2019-04-16T09:36:15.242Z,5.57
2019-04-16T09:38:50.593Z,7.00
2019-04-16T09:41:35.162Z,7.03
2019-04-16T09:44:06.917Z,5.60
2019-04-16T09:46:53.842Z,5.97
2019-04-16T09:49:11.995Z,5.93
2019-04-16T09:51:44.065Z,5.70
2019-04-16T09:54:15.820Z,5.90
2019-04-16T09:56:47.592Z,5.83
2019-04-16T09:59:39.347Z,6.00
2019-04-16T10:02:32.299Z,6.30
2019-04-16T10:05:04.635Z,6.33
2019-04-16T10:07:39.871Z,6.77
2019-04-16T10:10:10.395Z,6.57
2019-04-16T10:12:43.035Z,5.33
2019-04-16T10:15:15.859Z,5.83
2019-04-16T10:17:50.266Z,6.13
2019-04-16T10:20:21.912Z,5.60
2019-04-16T10:22:54.632Z,5.93
2019-04-16T10:25:26.444Z,5.10
2019-04-16T10:28:01.946Z,5.47
2019-04-16T10:30:43.626Z,5.43
2019-04-16T10:33:15.352Z,5.63
2019-04-16T10:35:47.089Z,5.20
2019-04-16T10:38:44.135Z,5.50
2019-04-16T10:41:30.427Z,5.37
2019-04-16T10:44:24.314Z,5.90
2019-04-16T10:47:35.684Z,6.30
2019-04-16T10:50:36.330Z,5.83
2019-04-16T10:53:30.270Z,5.20
2019-04-16T10:56:22.134Z,5.87
2019-04-16T10:59:19.063Z,5.97
2019-04-16T11:02:16.607Z,5.10
2019-04-16T11:05:15.228Z,6.00
2019-04-16T11:07:47.570Z,5.70
2019-04-16T11:10:19.225Z,5.45
2019-04-16T11:12:52.063Z,5.70
2019-04-16T11:15:25.057Z,5.90
2019-04-16T11:17:57.110Z,5.43
2019-04-16T11:20:28.911Z,5.73
2019-04-16T11:23:00.839Z,5.23
2019-04-16T11:25:32.561Z,5.77
2019-04-16T11:28:06.783Z,6.10
2019-04-16T11:30:41.770Z,6.20
2019-04-16T11:33:13.515Z,5.50
2019-04-16T11:35:45.365Z,5.40
2019-04-16T11:38:17.884Z,5.75
2019-04-16T11:40:49.501Z,5.37
2019-04-16T11:43:23.014Z,5.42
2019-04-16T11:45:55.069Z,5.37
2019-04-16T11:48:26.864Z,5.03
2019-04-16T11:50:58.612Z,5.83
2019-04-16T11:53:30.334Z,5.27
2019-04-16T11:56:04.632Z,4.87
2019-04-16T11:58:47.383Z,5.10
2019-04-16T12:01:25.874Z,5.08
2019-04-16T12:04:31.411Z,4.50
2019-04-16T12:07:12.327Z,5.20
2019-04-16T12:10:06.075Z,4.43
2019-04-16T12:12:57.225Z,5.00
2019-04-16T12:15:50.190Z,5.10
2019-04-16T12:18:55.942Z,5.20
2019-04-16T12:21:49.524Z,5.10
2019-04-16T12:24:49.056Z,4.80
2019-04-16T12:27:38.345Z,5.03
2019-04-16T12:30:42.090Z,5.14
2019-04-16T12:33:22.894Z,5.22
2019-04-16T12:36:16.777Z,5.03
2019-04-16T12:39:06.390Z,5.07
2019-04-16T12:42:16.917Z,5.55
2019-04-16T12:44:54.810Z,5.50
2019-04-16T12:47:39.248Z,5.10
2019-04-16T12:50:34.233Z,5.20
2019-04-16T12:53:17.483Z,5.30
2019-04-16T12:56:23.547Z,5.40
2019-04-16T12:59:12.971Z,5.78
2019-04-16T13:02:16.383Z,5.80
2019-04-16T13:05:02.311Z,5.25
2019-04-16T13:07:47.131Z,5.87
2019-04-16T13:10:36.409Z,5.15
2019-04-16T13:13:29.893Z,5.50
2019-04-16T13:16:06.828Z,10.82
2019-04-16T13:18:56.338Z,6.08
2019-04-16T13:21:34.347Z,4.97
2019-04-16T13:24:11.745Z,5.87
2019-04-16T13:26:55.500Z,5.87
2019-04-16T13:29:29.732Z,5.53
2019-04-16T13:32:03.897Z,5.78
2019-04-16T13:34:35.784Z,5.62
2019-04-16T13:37:07.662Z,6.17
2019-04-16T13:40:00.226Z,6.90
2019-04-16T13:42:32.283Z,5.75
2019-04-16T13:45:32.024Z,5.62
2019-04-16T13:48:15.600Z,5.22
2019-04-16T13:50:43.022Z,5.60
2019-04-16T13:53:30.856Z,5.92
2019-04-16T13:56:21.471Z,5.80
2019-04-16T13:59:04.548Z,5.90
2019-04-16T14:01:45.061Z,5.37
2019-04-16T14:04:13.752Z,5.62
2019-04-16T14:06:46.345Z,5.50
2019-04-16T14:09:18.239Z,5.30
2019-04-16T14:11:51.323Z,5.47
2019-04-16T14:14:24.840Z,5.47
2019-04-16T14:16:56.982Z,5.15
2019-04-16T14:19:28.575Z,5.62
2019-04-16T14:22:01.755Z,5.35
2019-04-16T14:24:33.589Z,4.33
2019-04-16T14:27:06.044Z,4.50
2019-04-16T14:29:38.897Z,4.22
2019-04-16T14:32:12.225Z,4.20
2019-04-16T14:34:55.337Z,4.05
2019-04-16T14:37:27.076Z,3.40
2019-04-16T14:40:26.943Z,4.33
2019-04-16T14:42:59.325Z,3.93
2019-04-16T14:45:59.329Z,3.85
2019-04-16T14:48:30.278Z,4.05
2019-04-16T14:51:02.969Z,3.55
2019-04-16T14:53:56.870Z,3.80
2019-04-16T14:56:40.695Z,4.10
2019-04-16T14:59:30.248Z,4.40
2019-04-16T15:02:16.539Z,4.80
2019-04-16T15:05:08.947Z,4.20
2019-04-16T15:08:04.667Z,4.53
2019-04-16T15:10:54.694Z,4.60
2019-04-16T15:13:42.322Z,4.97
2019-04-16T15:16:40.717Z,5.10
2019-04-16T15:19:20.714Z,5.40
2019-04-16T15:22:14.081Z,4.95
2019-04-16T15:24:50.951Z,5.10
2019-04-16T15:27:37.063Z,4.83
2019-04-16T15:30:31.619Z,4.97
2019-04-16T15:33:40.716Z,4.70
2019-04-16T15:36:19.749Z,5.28
2019-04-16T15:39:10.473Z,5.10
2019-04-16T15:42:16.346Z,5.17
2019-04-16T15:44:52.558Z,4.90
2019-04-16T15:47:42.948Z,5.35
2019-04-16T15:50:18.626Z,5.40
2019-04-16T15:52:59.006Z,4.80
2019-04-16T15:55:48.024Z,4.25
2019-04-16T15:58:26.787Z,6.58
2019-04-16T16:01:36.571Z,6.40
2019-04-16T16:04:11.207Z,4.83
2019-04-16T16:06:56.473Z,4.27
2019-04-16T16:09:41.842Z,5.30
2019-04-16T16:12:22.071Z,4.73
2019-04-16T16:14:51.488Z,4.70
2019-04-16T16:17:23.507Z,4.95
2019-04-16T16:19:55.491Z,4.83
2019-04-16T16:22:27.260Z,4.90
2019-04-16T16:24:59.302Z,4.90
2019-04-16T16:27:31.098Z,4.50
2019-04-16T16:30:03.619Z,4.53
2019-04-16T16:32:37.175Z,4.10
2019-04-16T16:35:09.420Z,4.00
2019-04-16T16:37:42.258Z,4.17
2019-04-16T16:40:15.205Z,3.72
2019-04-16T16:42:48.982Z,3.90
2019-04-16T16:45:22.805Z,4.10
2019-04-16T16:47:54.426Z,4.60
2019-04-16T16:50:26.238Z,4.10
2019-04-16T16:53:15.558Z,4.40
2019-04-16T16:55:50.734Z,4.27
2019-04-16T16:58:42.405Z,4.40
2019-04-16T17:01:42.336Z,4.87
2019-04-16T17:04:23.125Z,5.05
2019-04-16T17:06:56.372Z,5.00
2019-04-16T17:09:37.006Z,5.77
2019-04-16T17:12:08.685Z,6.23
2019-04-16T17:14:40.669Z,6.60
2019-04-16T17:17:15.164Z,7.28
2019-04-16T17:19:50.715Z,6.30
2019-04-16T17:22:21.334Z,6.08
2019-04-16T17:24:53.055Z,6.53
2019-04-16T17:27:24.832Z,6.43
2019-04-16T17:29:56.868Z,6.57
2019-04-16T17:32:29.170Z,5.73
2019-04-16T17:35:00.752Z,5.70
2019-04-16T17:37:33.831Z,5.43
2019-04-16T17:40:19.047Z,5.90
2019-04-16T17:42:53.299Z,5.50
2019-04-16T17:45:47.045Z,5.83
2019-04-16T17:48:36.684Z,6.05
2019-04-16T17:51:27.310Z,6.30
2019-04-16T17:54:06.693Z,6.03
2019-04-16T17:57:15.372Z,6.50
2019-04-16T18:00:00.478Z,7.60
2019-04-16T18:02:48.566Z,8.27
2019-04-16T18:05:48.669Z,9.38
2019-04-16T18:08:41.742Z,7.80
2019-04-16T18:11:20.996Z,7.90
2019-04-16T18:14:12.575Z,8.13
2019-04-16T18:16:54.128Z,6.90
2019-04-16T18:20:00.596Z,8.30
2019-04-16T18:22:41.948Z,8.27
2019-04-16T18:25:32.776Z,8.55
2019-04-16T18:28:09.483Z,9.23
2019-04-16T18:30:55.190Z,9.00
2019-04-16T18:33:49.064Z,8.13
2019-04-16T18:36:31.293Z,6.97
2019-04-16T18:39:21.891Z,7.53
2019-04-16T18:42:19.985Z,7.90
2019-04-16T18:45:11.671Z,9.47
2019-04-16T18:48:01.509Z,8.40
2019-04-16T18:50:27.948Z,7.60
2019-04-16T18:52:57.485Z,8.00
2019-04-16T18:55:29.216Z,7.50
2019-04-16T18:58:01.739Z,7.10
2019-04-16T19:00:45.529Z,7.53
2019-04-16T19:03:17.357Z,7.28
2019-04-16T19:05:49.691Z,7.40
2019-04-16T19:08:21.591Z,30.80
2019-04-16T19:10:53.431Z,8.03
2019-04-16T19:13:25.103Z,6.80
2019-04-16T19:15:57.038Z,6.13
2019-04-16T19:18:28.554Z,4.93
2019-04-16T19:21:00.741Z,5.22
2019-04-16T19:23:32.455Z,3.97
2019-04-16T19:26:04.815Z,4.30
2019-04-16T19:28:39.619Z,4.40
2019-04-16T19:31:12.192Z,4.33
2019-04-16T19:33:44.373Z,4.50
2019-04-16T19:36:16.326Z,4.60
2019-04-16T19:38:48.759Z,4.47
2019-04-16T19:41:24.396Z,5.45
2019-04-16T19:43:54.488Z,6.03
2019-04-16T19:46:26.908Z,5.07
2019-04-16T19:49:01.725Z,5.75
2019-04-16T19:51:33.711Z,5.57
2019-04-16T19:54:06.730Z,6.00
2019-04-16T19:56:38.672Z,5.83
2019-04-16T19:59:10.501Z,5.37
2019-04-16T20:01:42.458Z,5.93
2019-04-16T20:04:14.877Z,6.30
2019-04-16T20:06:46.834Z,6.50
2019-04-16T20:09:18.536Z,6.60
2019-04-16T20:11:54.690Z,6.53
2019-04-16T20:14:23.551Z,5.80
2019-04-16T20:16:55.317Z,6.60
2019-04-16T20:19:27.055Z,6.57
2019-04-16T20:21:59.648Z,6.37
2019-04-16T20:24:31.693Z,6.43
2019-04-16T20:27:06.718Z,5.87
2019-04-16T20:29:38.366Z,6.60
2019-04-16T20:32:10.209Z,6.90
2019-04-16T20:34:46.250Z,6.90
2019-04-16T20:37:17.951Z,6.40
2019-04-16T20:39:49.874Z,6.37
2019-04-16T20:42:21.714Z,6.20
2019-04-16T20:44:54.593Z,7.17
2019-04-16T20:47:26.970Z,7.50
2019-04-16T20:49:59.050Z,7.63
2019-04-16T20:52:30.933Z,7.17
2019-04-16T20:55:04.836Z,7.37
2019-04-16T20:57:39.081Z,7.90
2019-04-16T21:00:12.893Z,8.43
2019-04-16T21:02:44.978Z,8.97
2019-04-16T21:05:22.382Z,8.83
2019-04-16T21:07:51.388Z,9.50
2019-04-16T21:10:23.255Z,8.97
2019-04-16T21:12:56.943Z,9.30
2019-04-16T21:15:29.084Z,9.73
2019-04-16T21:18:00.914Z,10.37
2019-04-16T21:20:33.770Z,11.50
2019-04-16T21:23:05.963Z,12.00
2019-04-16T21:25:37.935Z,11.53
2019-04-16T21:28:26.713Z,11.60
2019-04-16T21:31:04.153Z,11.33
2019-04-16T21:33:55.003Z,12.10
2019-04-16T21:36:49.000Z,12.60
2019-04-16T21:39:26.285Z,11.67
2019-04-16T21:42:01.784Z,12.70
2019-04-16T21:44:31.665Z,11.77
2019-04-16T21:47:03.523Z,11.03
2019-04-16T21:49:38.980Z,10.77
2019-04-16T21:52:09.245Z,11.33
2019-04-16T21:54:41.375Z,11.90
2019-04-16T21:57:14.383Z,12.60
2019-04-16T21:59:46.382Z,12.58
2019-04-16T22:02:22.577Z,13.55
2019-04-16T22:04:55.251Z,14.13
2019-04-16T22:07:27.555Z,14.27
2019-04-16T22:09:59.756Z,14.60
2019-04-16T22:12:31.534Z,14.37
2019-04-16T22:15:03.294Z,14.00
2019-04-16T22:17:36.799Z,14.37
2019-04-16T22:20:10.150Z,14.60
2019-04-16T22:22:43.689Z,15.77
2019-04-16T22:25:16.353Z,15.67
2019-04-16T22:27:47.971Z,15.97
2019-04-16T22:30:20.215Z,15.97
2019-04-16T22:32:52.490Z,15.95
2019-04-16T22:35:24.478Z,15.47
2019-04-16T22:37:56.426Z,15.75
2019-04-16T22:40:55.005Z,17.32
2019-04-16T22:43:45.368Z,16.83
2019-04-16T22:46:24.051Z,15.67
2019-04-16T22:48:56.806Z,16.33
2019-04-16T22:51:28.586Z,15.67
2019-04-16T22:54:00.449Z,16.57
2019-04-16T22:56:45.950Z,15.33
2019-04-16T22:59:19.026Z,15.77
2019-04-16T23:01:53.221Z,15.83
2019-04-16T23:04:25.974Z,16.53
2019-04-16T23:06:57.835Z,15.37
2019-04-16T23:09:31.109Z,16.07
2019-04-16T23:12:03.528Z,16.00
2019-04-16T23:14:35.672Z,15.23
2019-04-16T23:17:13.431Z,14.90
2019-04-16T23:19:42.487Z,17.43
2019-04-16T23:22:15.385Z,15.70
2019-04-16T23:24:48.145Z,14.97
2019-04-16T23:27:20.571Z,16.20
2019-04-16T23:29:52.287Z,15.70
2019-04-16T23:32:27.666Z,15.08
2019-04-16T23:34:57.390Z,15.37
2019-04-16T23:37:31.656Z,16.17
2019-04-16T23:40:07.195Z,16.30
2019-04-16T23:42:40.305Z,16.27
2019-04-16T23:45:31.465Z,16.43
2019-04-16T23:48:31.323Z,16.90
2019-04-16T23:51:16.937Z,16.53
2019-04-16T23:53:52.320Z,16.20
2019-04-16T23:56:28.706Z,17.87
2019-04-16T23:59:04.630Z,17.77
